Overseas Skopelos — V7SU9 — position and weather

sailwx.info

Track history (hours):
 
Tides and Currents Weather Stations Pressure Air Temp Water Temp Dewpoint Dewpoint Depression Visibility Wind Speed Wind Dir Waves Ship Positions

Overseas Skopelos

Last reported at 2014-Aug-20 14:21 UTC. Time now 2014-Aug-20 14:42 UTC.
Position N 44°38' W 063°32'.

Length 183 m; draft 8.1 m.

Type: Tanker. MMSI: 538003726.

Date/timePositionNaut miles runAvg speedWind from/ knotsBaromVisibWave heightAir tempDewpointWater temp
2014-Aug-20 14:21N 44°38' W 063°32'0 0.0
2014-Aug-20 13:27N 44°38' W 063°32'0 0.0
2014-Aug-20 12:27N 44°38' W 063°32'0 0.0
2014-Aug-20 11:27N 44°38' W 063°32'0 0.0
2014-Aug-20 10:30N 44°38' W 063°32'0 0.0
2014-Aug-20 09:30N 44°38' W 063°32'0 0.0
2014-Aug-20 08:33N 44°38' W 063°32'0 0.0
2014-Aug-20 07:33N 44°38' W 063°32'0 0.0
2014-Aug-20 06:30N 44°38' W 063°32'0 0.0
2014-Aug-20 05:33N 44°38' W 063°32'0 0.0
2014-Aug-20 04:30N 44°38' W 063°32'0 0.0
2014-Aug-20 03:33N 44°38' W 063°32'1 0.8
2014-Aug-20 02:32N 44°39' W 063°33'0 0.4
2014-Aug-20 01:25N 44°39' W 063°34'0 0.0
2014-Aug-20 00:25N 44°39' W 063°34'0 0.0
2014-Aug-19 23:28N 44°39' W 063°34'0 0.0
2014-Aug-19 22:28N 44°39' W 063°34'0 0.0
2014-Aug-19 21:28N 44°39' W 063°34'0 0.0
2014-Aug-19 20:31N 44°39' W 063°34'0 0.0
2014-Aug-19 19:31N 44°39' W 063°34'0 0.0
2014-Aug-19 18:31N 44°39' W 063°34'0 0.0
2014-Aug-19 17:31N 44°39' W 063°34'0 0.0
2014-Aug-19 16:19N 44°39' W 063°34'0 0.0
2014-Aug-19 15:22N 44°39' W 063°34'0 0.0
2014-Aug-19 14:19N 44°39' W 063°34'0 0.0
2014-Aug-19 12:25N 44°39' W 063°34'0 0.0
2014-Aug-19 11:22N 44°39' W 063°34'0 0.0
2014-Aug-19 10:25N 44°39' W 063°34'0 0.0
2014-Aug-19 09:28N 44°39' W 063°34'0 0.0
2014-Aug-19 08:28N 44°39' W 063°34'0 0.0
2014-Aug-19 07:28N 44°39' W 063°34'0 0.0
2014-Aug-19 06:31N 44°39' W 063°34'0 0.1
2014-Aug-19 05:33N 44°39' W 063°34'7 6.8
2014-Aug-19 04:33N 44°32' W 063°31'9 8.6
2014-Aug-19 03:33N 44°25' W 063°25'  
Track history (hours):
 
Tides and Currents Weather Stations Pressure Air Temp Water Temp Dewpoint Dewpoint Depression Visibility Wind Speed Wind Dir Waves Ship Positions

Overseas Skopelos

Last reported at 2014-Aug-20 14:21 UTC. Time now 2014-Aug-20 14:42 UTC.
Position N 44°38' W 063°32'.

Length 183 m; draft 8.1 m.

Type: Tanker. MMSI: 538003726.

Date/timePositionNaut miles runAvg speedWind from/ knotsBaromVisibWave heightAir tempDewpointWater temp
2014-Aug-20 14:21N 44°38' W 063°32'0 0.0
2014-Aug-20 13:27N 44°38' W 063°32'0 0.0
2014-Aug-20 12:27N 44°38' W 063°32'0 0.0
2014-Aug-20 11:27N 44°38' W 063°32'0 0.0
2014-Aug-20 10:30N 44°38' W 063°32'0 0.0
2014-Aug-20 09:30N 44°38' W 063°32'0 0.0
2014-Aug-20 08:33N 44°38' W 063°32'0 0.0
2014-Aug-20 07:33N 44°38' W 063°32'0 0.0
2014-Aug-20 06:30N 44°38' W 063°32'0 0.0
2014-Aug-20 05:33N 44°38' W 063°32'0 0.0
2014-Aug-20 04:30N 44°38' W 063°32'0 0.0
2014-Aug-20 03:33N 44°38' W 063°32'1 0.8
2014-Aug-20 02:32N 44°39' W 063°33'0 0.4
2014-Aug-20 01:25N 44°39' W 063°34'0 0.0
2014-Aug-20 00:25N 44°39' W 063°34'0 0.0
2014-Aug-19 23:28N 44°39' W 063°34'0 0.0
2014-Aug-19 22:28N 44°39' W 063°34'0 0.0
2014-Aug-19 21:28N 44°39' W 063°34'0 0.0
2014-Aug-19 20:31N 44°39' W 063°34'0 0.0
2014-Aug-19 19:31N 44°39' W 063°34'0 0.0
2014-Aug-19 18:31N 44°39' W 063°34'0 0.0
2014-Aug-19 17:31N 44°39' W 063°34'0 0.0
2014-Aug-19 16:19N 44°39' W 063°34'0 0.0
2014-Aug-19 15:22N 44°39' W 063°34'0 0.0
2014-Aug-19 14:19N 44°39' W 063°34'0 0.0
2014-Aug-19 12:25N 44°39' W 063°34'0 0.0
2014-Aug-19 11:22N 44°39' W 063°34'0 0.0
2014-Aug-19 10:25N 44°39' W 063°34'0 0.0
2014-Aug-19 09:28N 44°39' W 063°34'0 0.0
2014-Aug-19 08:28N 44°39' W 063°34'0 0.0
2014-Aug-19 07:28N 44°39' W 063°34'0 0.0
2014-Aug-19 06:31N 44°39' W 063°34'0 0.1
2014-Aug-19 05:33N 44°39' W 063°34'7 6.8
2014-Aug-19 04:33N 44°32' W 063°31'9 8.6
2014-Aug-19 03:33N 44°25' W 063°25'  

Dump ship's entire track history